Ogdensburg, WI (54962)

7:05 AM CDT on June 23, 2017 (GMT -0500)
Bear Lake | | Change Station
Active Advisory: Flood Warning

Elev 806 ft 44.40 °N, 88.94 °W | Updated 22 seconds ago

Partly Cloudy
Partly Cloudy
61.9 °F
Feels Like 61.9 °F
N
3.0
Wind Variable Wind from WNW
Gusts 4.0 mph

Today
High -- | Low -- °F
--% Chance of Precip.
Yesterday
High -- | Low -- °F
Precip. -- in
Pressure 29.70 in
Visibility 10.0 miles
Clouds Clear
Dew Point 61 °F
Humidity 98%
Rainfall 0.02 in
Snow Depth Not available.
5:12 AM 8:44 PM
Waning Crescent, 1% visible
METAR KPCZ 231155Z AUTO 27006KT 10SM CLR 18/18 A2970 RMK AO2 P0001 60001 70005 T01800176 10197 20168
Pressure 29.70 in
Visibility 10.0 miles
Clouds Clear
Dew Point 61 °F
Humidity 98%
Rainfall 0.02 in
Snow Depth Not available.
5:12 AM 8:44 PM
Waning Crescent, 1% visible
METAR KPCZ 231155Z AUTO 27006KT 10SM CLR 18/18 A2970 RMK AO2 P0001 60001 70005 T01800176 10197 20168

Get Your Daily Forecast Email!

Thanks for signing up!

Be on the lookout for a verification email in your inbox.

You'll start receiving severe weather alerts in your inbox..

×

10-Day Weather Forecast

Almanac

Astronomy

Jun. 23, 2017 Rise Set
Actual Time
Civil Twilight
Nautical Twilight
Astronomical Twilight
Moon
Length of Visible Light
Length of Day
Tomorrow will be .
, % of the Moon is Illuminated

Today's Extremes

State Highs State Lows

Community

WunderPhotos

Category 6

Welcome to Category 6. This is the collective home for Weather Underground's featured writeups by Dr. Jeff Masters (right), Bob Henson (left), Chris Burt, and other regular contributors.

Nearby

Air Quality

  Air Quality AQ Index Pollutant
Not available.

Snow Depth

Station Depth Elevation

Earthquake Activity

City Distance Mag. Time & Date
Minimum magnitude displayed is 2.5.

Coastal Water Temperatures

Place Temperature

Stations

Nearby Weather Stations

Station Location Temp. Windchill Dew Point Humidity Wind Precip. Elev Updated Type
                   

Watches & Warnings

Flood Warning
Issued: 9:38 PM CDT Jun. 22, 2017 – National Weather Service

The Flood Warning continues for
the Wolf River near Shiocton.
* At 8:02 am Thursday the stage was 12.7 feet.
* Flood stage is 12.0 feet.
* Minor flooding is occurring and minor flooding is forecast.
* Forecast... the river will continue rising to near 13.2 feet by
Monday morning then begin falling.
* At 13.0 feet, floodwaters begin to surround homes and cover streets
near the river in the Shiocton area. This mainly includes homes
along island and mill streets.


Lat... Lon 4468 8852 4433 8848 4434 8867 4440 8867
      4450 8863 4468 8867